sensor_id;sensor_type;location;lat;lon;timestamp;P1;durP1;ratioP1;P2;durP2;ratioP2
23476;SDS011;11911;50.768;13.150;2022-09-12T04:00:15;19.00;;;14.80;;
23476;SDS011;11911;50.768;13.150;2022-09-12T04:02:41;19.57;;;14.53;;
23476;SDS011;11911;50.768;13.150;2022-09-12T04:05:06;20.07;;;11.90;;
23476;SDS011;11911;50.768;13.150;2022-09-12T04:07:32;15.60;;;9.40;;
23476;SDS011;11911;50.768;13.150;2022-09-12T04:09:58;15.00;;;9.97;;
23476;SDS011;11911;50.768;13.150;2022-09-12T04:12:23;20.87;;;9.80;;
23476;SDS011;11911;50.768;13.150;2022-09-12T04:14:48;14.27;;;11.63;;
23476;SDS011;11911;50.768;13.150;2022-09-12T04:17:14;18.13;;;12.90;;
23476;SDS011;11911;50.768;13.150;2022-09-12T04:19:39;14.43;;;11.87;;
23476;SDS011;11911;50.768;13.150;2022-09-12T04:22:05;24.73;;;16.57;;
23476;SDS011;11911;50.768;13.150;2022-09-12T04:24:31;23.47;;;17.20;;
23476;SDS011;11911;50.768;13.150;2022-09-12T04:26:56;23.13;;;17.27;;
23476;SDS011;11911;50.768;13.150;2022-09-12T04:29:22;26.07;;;18.80;;
23476;SDS011;11911;50.768;13.150;2022-09-12T04:31:47;39.00;;;22.47;;
23476;SDS011;11911;50.768;13.150;2022-09-12T04:34:13;26.17;;;19.60;;
23476;SDS011;11911;50.768;13.150;2022-09-12T04:36:39;25.07;;;17.93;;
23476;SDS011;11911;50.768;13.150;2022-09-12T04:39:05;23.00;;;17.77;;
23476;SDS011;11911;50.768;13.150;2022-09-12T04:41:32;26.90;;;18.90;;
23476;SDS011;11911;50.768;13.150;2022-09-12T04:44:00;26.77;;;16.97;;
23476;SDS011;11911;50.768;13.150;2022-09-12T04:46:30;22.80;;;16.67;;
23476;SDS011;11911;50.768;13.150;2022-09-12T04:48:57;21.20;;;15.60;;
23476;SDS011;11911;50.768;13.150;2022-09-12T04:51:24;17.00;;;13.40;;
23476;SDS011;11911;50.768;13.150;2022-09-12T04:53:55;21.17;;;14.73;;
23476;SDS011;11911;50.768;13.150;2022-09-12T04:56:22;20.40;;;14.63;;
23476;SDS011;11911;50.768;13.150;2022-09-12T04:58:48;20.13;;;15.80;;
23476;SDS011;11911;50.768;13.150;2022-09-12T05:01:15;31.60;;;19.37;;
23476;SDS011;11911;50.768;13.150;2022-09-12T05:03:42;14.73;;;12.03;;
23476;SDS011;11911;50.768;13.150;2022-09-12T05:06:09;15.60;;;12.90;;
23476;SDS011;11911;50.768;13.150;2022-09-12T05:08:39;23.33;;;15.67;;
23476;SDS011;11911;50.768;13.150;2022-09-12T05:11:12;23.50;;;14.60;;
23476;SDS011;11911;50.768;13.150;2022-09-12T05:13:39;27.93;;;18.47;;
23476;SDS011;11911;50.768;13.150;2022-09-12T05:16:06;22.13;;;13.10;;
23476;SDS011;11911;50.768;13.150;2022-09-12T05:18:34;19.23;;;12.97;;
23476;SDS011;11911;50.768;13.150;2022-09-12T05:21:01;18.67;;;13.77;;
23476;SDS011;11911;50.768;13.150;2022-09-12T05:23:28;18.30;;;13.00;;
23476;SDS011;11911;50.768;13.150;2022-09-12T05:25:56;19.03;;;14.00;;
23476;SDS011;11911;50.768;13.150;2022-09-12T05:28:22;20.30;;;16.57;;
23476;SDS011;11911;50.768;13.150;2022-09-12T05:31:26;26.33;;;19.50;;
23476;SDS011;11911;50.768;13.150;2022-09-12T05:33:46;27.37;;;20.60;;
23476;SDS011;11911;50.768;13.150;2022-09-12T05:36:21;34.40;;;21.27;;
23476;SDS011;11911;50.768;13.150;2022-09-12T05:38:51;25.50;;;17.27;;
23476;SDS011;11911;50.768;13.150;2022-09-12T05:41:21;39.10;;;19.73;;
23476;SDS011;11911;50.768;13.150;2022-09-12T05:43:54;20.73;;;14.67;;
23476;SDS011;11911;50.768;13.150;2022-09-12T05:46:21;22.37;;;14.97;;
23476;SDS011;11911;50.768;13.150;2022-09-12T05:48:51;23.30;;;17.27;;
23476;SDS011;11911;50.768;13.150;2022-09-12T05:51:19;24.03;;;16.90;;
23476;SDS011;11911;50.768;13.150;2022-09-12T05:53:48;30.37;;;19.40;;
23476;SDS011;11911;50.768;13.150;2022-09-12T05:56:17;28.60;;;21.20;;
23476;SDS011;11911;50.768;13.150;2022-09-12T05:58:46;28.73;;;20.30;;
23476;SDS011;11911;50.768;13.150;2022-09-12T06:01:13;26.60;;;20.50;;
23476;SDS011;11911;50.768;13.150;2022-09-12T06:03:41;37.87;;;19.37;;
23476;SDS011;11911;50.768;13.150;2022-09-12T06:06:08;32.03;;;20.00;;
23476;SDS011;11911;50.768;13.150;2022-09-12T06:08:37;25.10;;;15.80;;
23476;SDS011;11911;50.768;13.150;2022-09-12T06:11:04;30.47;;;18.23;;
23476;SDS011;11911;50.768;13.150;2022-09-12T06:13:31;26.00;;;18.50;;
23476;SDS011;11911;50.768;13.150;2022-09-12T06:16:04;31.27;;;18.87;;
23476;SDS011;11911;50.768;13.150;2022-09-12T06:18:32;24.43;;;17.70;;
23476;SDS011;11911;50.768;13.150;2022-09-12T06:21:01;26.37;;;19.37;;
23476;SDS011;11911;50.768;13.150;2022-09-12T06:23:30;27.63;;;19.00;;
23476;SDS011;11911;50.768;13.150;2022-09-12T06:25:56;21.50;;;17.23;;
23476;SDS011;11911;50.768;13.150;2022-09-12T06:28:21;31.87;;;18.40;;
23476;SDS011;11911;50.768;13.150;2022-09-12T06:30:47;27.17;;;19.90;;
23476;SDS011;11911;50.768;13.150;2022-09-12T06:33:13;30.70;;;19.47;;
23476;SDS011;11911;50.768;13.150;2022-09-12T06:35:39;27.40;;;19.60;;
23476;SDS011;11911;50.768;13.150;2022-09-12T06:38:04;26.77;;;19.30;;
23476;SDS011;11911;50.768;13.150;2022-09-12T06:40:31;25.00;;;17.80;;
23476;SDS011;11911;50.768;13.150;2022-09-12T06:42:57;28.10;;;19.00;;
23476;SDS011;11911;50.768;13.150;2022-09-12T06:45:22;28.50;;;18.80;;
23476;SDS011;11911;50.768;13.150;2022-09-12T06:47:50;26.33;;;18.10;;
23476;SDS011;11911;50.768;13.150;2022-09-12T06:50:15;22.70;;;17.00;;
23476;SDS011;11911;50.768;13.150;2022-09-12T06:52:41;23.93;;;16.70;;
23476;SDS011;11911;50.768;13.150;2022-09-12T06:55:08;31.33;;;17.90;;
23476;SDS011;11911;50.768;13.150;2022-09-12T06:57:34;24.70;;;17.60;;
23476;SDS011;11911;50.768;13.150;2022-09-12T07:00:03;30.20;;;19.67;;
23476;SDS011;11911;50.768;13.150;2022-09-12T07:02:29;26.67;;;18.40;;
23476;SDS011;11911;50.768;13.150;2022-09-12T07:04:55;23.77;;;16.17;;
23476;SDS011;11911;50.768;13.150;2022-09-12T07:07:20;23.30;;;16.87;;
23476;SDS011;11911;50.768;13.150;2022-09-12T07:09:46;20.60;;;15.23;;
23476;SDS011;11911;50.768;13.150;2022-09-12T07:12:13;19.67;;;15.50;;
23476;SDS011;11911;50.768;13.150;2022-09-12T07:14:38;20.33;;;15.57;;
23476;SDS011;11911;50.768;13.150;2022-09-12T07:17:04;21.30;;;15.23;;
23476;SDS011;11911;50.768;13.150;2022-09-12T07:19:29;22.23;;;15.53;;
23476;SDS011;11911;50.768;13.150;2022-09-12T07:21:55;23.13;;;16.97;;
23476;SDS011;11911;50.768;13.150;2022-09-12T07:24:20;18.70;;;14.97;;
23476;SDS011;11911;50.768;13.150;2022-09-12T07:26:46;19.00;;;14.40;;
23476;SDS011;11911;50.768;13.150;2022-09-12T07:29:12;19.20;;;16.60;;
23476;SDS011;11911;50.768;13.150;2022-09-12T07:31:40;19.07;;;16.43;;
23476;SDS011;11911;50.768;13.150;2022-09-12T07:34:05;18.20;;;15.30;;
23476;SDS011;11911;50.768;13.150;2022-09-12T07:36:31;18.10;;;14.47;;
23476;SDS011;11911;50.768;13.150;2022-09-12T07:38:57;19.70;;;14.90;;
23476;SDS011;11911;50.768;13.150;2022-09-12T07:41:24;23.20;;;15.90;;
23476;SDS011;11911;50.768;13.150;2022-09-12T07:43:54;15.47;;;13.73;;
23476;SDS011;11911;50.768;13.150;2022-09-12T07:46:24;18.50;;;15.17;;
23476;SDS011;11911;50.768;13.150;2022-09-12T07:48:54;17.53;;;14.00;;
23476;SDS011;11911;50.768;13.150;2022-09-12T07:51:20;15.37;;;13.80;;
23476;SDS011;11911;50.768;13.150;2022-09-12T07:53:48;14.63;;;11.90;;
23476;SDS011;11911;50.768;13.150;2022-09-12T07:56:14;13.57;;;12.07;;
23476;SDS011;11911;50.768;13.150;2022-09-12T07:58:40;15.70;;;14.07;;
23476;SDS011;11911;50.768;13.150;2022-09-12T08:01:08;17.27;;;13.40;;
23476;SDS011;11911;50.768;13.150;2022-09-12T08:03:37;19.60;;;14.33;;
23476;SDS011;11911;50.768;13.150;2022-09-12T08:06:07;16.87;;;10.90;;
23476;SDS011;11911;50.768;13.150;2022-09-12T08:08:35;12.00;;;10.67;;
23476;SDS011;11911;50.768;13.150;2022-09-12T08:11:02;10.27;;;9.20;;
23476;SDS011;11911;50.768;13.150;2022-09-12T08:13:30;9.30;;;8.33;;
23476;SDS011;11911;50.768;13.150;2022-09-12T08:15:57;11.47;;;9.70;;
23476;SDS011;11911;50.768;13.150;2022-09-12T08:18:23;15.47;;;11.10;;
23476;SDS011;11911;50.768;13.150;2022-09-12T08:20:54;12.13;;;10.00;;
23476;SDS011;11911;50.768;13.150;2022-09-12T08:23:23;11.27;;;9.10;;
23476;SDS011;11911;50.768;13.150;2022-09-12T08:25:50;12.57;;;9.27;;
23476;SDS011;11911;50.768;13.150;2022-09-12T08:28:18;13.23;;;9.73;;
23476;SDS011;11911;50.768;13.150;2022-09-12T08:30:44;14.47;;;9.63;;
23476;SDS011;11911;50.768;13.150;2022-09-12T08:33:09;10.77;;;8.50;;
23476;SDS011;11911;50.768;13.150;2022-09-12T08:35:35;10.03;;;9.03;;
23476;SDS011;11911;50.768;13.150;2022-09-12T08:38:00;12.10;;;9.67;;
23476;SDS011;11911;50.768;13.150;2022-09-12T08:40:26;11.90;;;10.70;;
23476;SDS011;11911;50.768;13.150;2022-09-12T08:43:06;12.50;;;10.40;;
23476;SDS011;11911;50.768;13.150;2022-09-12T08:45:58;12.77;;;10.60;;
23476;SDS011;11911;50.768;13.150;2022-09-12T08:48:31;12.23;;;9.17;;
23476;SDS011;11911;50.768;13.150;2022-09-12T08:50:57;13.13;;;9.77;;
23476;SDS011;11911;50.768;13.150;2022-09-12T08:53:24;13.67;;;10.90;;
23476;SDS011;11911;50.768;13.150;2022-09-12T08:55:55;12.63;;;9.23;;
23476;SDS011;11911;50.768;13.150;2022-09-12T08:58:23;12.37;;;10.13;;
23476;SDS011;11911;50.768;13.150;2022-09-12T09:00:57;16.23;;;10.57;;
23476;SDS011;11911;50.768;13.150;2022-09-12T09:06:09;6.67;;;6.00;;
23476;SDS011;11911;50.768;13.150;2022-09-12T09:08:46;4.03;;;3.63;;
23476;SDS011;11911;50.768;13.150;2022-09-12T09:17:34;10.10;;;5.50;;
23476;SDS011;11911;50.768;13.150;2022-09-12T09:20:21;6.63;;;4.73;;
23476;SDS011;11911;50.768;13.150;2022-09-12T09:25:58;6.90;;;4.33;;
23476;SDS011;11911;50.768;13.150;2022-09-12T09:28:35;7.10;;;4.70;;
23476;SDS011;11911;50.768;13.150;2022-09-12T09:31:14;7.17;;;5.20;;
23476;SDS011;11911;50.768;13.150;2022-09-12T09:33:41;5.60;;;4.47;;
23476;SDS011;11911;50.768;13.150;2022-09-12T09:41:53;4.13;;;3.70;;
23476;SDS011;11911;50.768;13.150;2022-09-12T09:44:35;8.30;;;3.53;;
23476;SDS011;11911;50.768;13.150;2022-09-12T09:47:00;5.43;;;3.27;;
23476;SDS011;11911;50.768;13.150;2022-09-12T09:49:27;9.77;;;3.10;;
23476;SDS011;11911;50.768;13.150;2022-09-12T09:51:55;4.30;;;3.30;;
23476;SDS011;11911;50.768;13.150;2022-09-12T09:54:23;4.10;;;3.03;;
23476;SDS011;11911;50.768;13.150;2022-09-12T09:56:54;3.23;;;2.90;;
23476;SDS011;11911;50.768;13.150;2022-09-12T09:59:27;3.60;;;3.30;;
23476;SDS011;11911;50.768;13.150;2022-09-12T10:04:39;3.60;;;2.57;;
23476;SDS011;11911;50.768;13.150;2022-09-12T10:07:06;6.50;;;3.30;;
23476;SDS011;11911;50.768;13.150;2022-09-12T10:09:44;4.80;;;2.43;;
23476;SDS011;11911;50.768;13.150;2022-09-12T10:12:38;4.43;;;2.90;;
23476;SDS011;11911;50.768;13.150;2022-09-12T10:15:14;3.23;;;2.93;;
23476;SDS011;11911;50.768;13.150;2022-09-12T10:17:42;2.80;;;2.60;;
23476;SDS011;11911;50.768;13.150;2022-09-12T10:20:32;2.90;;;2.53;;
23476;SDS011;11911;50.768;13.150;2022-09-12T10:23:19;2.33;;;2.13;;
23476;SDS011;11911;50.768;13.150;2022-09-12T10:25:55;2.63;;;2.43;;
23476;SDS011;11911;50.768;13.150;2022-09-12T10:28:32;2.43;;;2.23;;
23476;SDS011;11911;50.768;13.150;2022-09-12T10:31:01;2.50;;;2.10;;
23476;SDS011;11911;50.768;13.150;2022-09-12T10:33:27;1.97;;;1.40;;
23476;SDS011;11911;50.768;13.150;2022-09-12T10:35:53;2.80;;;1.50;;
23476;SDS011;11911;50.768;13.150;2022-09-12T10:38:21;1.93;;;1.83;;
23476;SDS011;11911;50.768;13.150;2022-09-12T10:41:00;2.20;;;1.70;;
23476;SDS011;11911;50.768;13.150;2022-09-12T10:43:38;2.53;;;2.10;;
23476;SDS011;11911;50.768;13.150;2022-09-12T10:48:40;2.90;;;2.07;;
23476;SDS011;11911;50.768;13.150;2022-09-12T10:53:42;2.00;;;1.60;;
23476;SDS011;11911;50.768;13.150;2022-09-12T11:04:33;2.20;;;2.00;;
23476;SDS011;11911;50.768;13.150;2022-09-12T11:07:27;3.37;;;2.60;;
23476;SDS011;11911;50.768;13.150;2022-09-12T11:10:19;2.60;;;2.40;;
23476;SDS011;11911;50.768;13.150;2022-09-12T11:13:11;2.30;;;2.10;;
23476;SDS011;11911;50.768;13.150;2022-09-12T11:18:50;2.80;;;2.47;;
23476;SDS011;11911;50.768;13.150;2022-09-12T11:24:25;2.80;;;2.17;;
23476;SDS011;11911;50.768;13.150;2022-09-12T11:30:48;1.80;;;1.70;;
23476;SDS011;11911;50.768;13.150;2022-09-12T11:33:37;2.93;;;1.80;;
23476;SDS011;11911;50.768;13.150;2022-09-12T11:36:07;1.87;;;1.67;;
23476;SDS011;11911;50.768;13.150;2022-09-12T11:38:49;1.83;;;1.73;;
23476;SDS011;11911;50.768;13.150;2022-09-12T11:41:25;1.97;;;1.87;;
23476;SDS011;11911;50.768;13.150;2022-09-12T11:44:03;2.70;;;2.23;;
23476;SDS011;11911;50.768;13.150;2022-09-12T11:46:35;3.27;;;1.90;;
23476;SDS011;11911;50.768;13.150;2022-09-12T11:49:11;4.13;;;2.40;;
23476;SDS011;11911;50.768;13.150;2022-09-12T11:54:55;2.10;;;1.80;;
23476;SDS011;11911;50.768;13.150;2022-09-12T12:00:18;2.37;;;1.83;;
23476;SDS011;11911;50.768;13.150;2022-09-12T12:05:23;2.40;;;2.00;;
23476;SDS011;11911;50.768;13.150;2022-09-12T12:07:59;1.97;;;1.73;;
23476;SDS011;11911;50.768;13.150;2022-09-12T12:10:47;3.40;;;2.10;;
23476;SDS011;11911;50.768;13.150;2022-09-12T12:13:35;3.70;;;1.80;;
23476;SDS011;11911;50.768;13.150;2022-09-12T12:16:06;2.00;;;1.43;;
23476;SDS011;11911;50.768;13.150;2022-09-12T12:18:42;4.20;;;1.33;;
23476;SDS011;11911;50.768;13.150;2022-09-12T12:29:12;1.93;;;1.83;;
23476;SDS011;11911;50.768;13.150;2022-09-12T12:34:35;2.60;;;1.57;;
23476;SDS011;11911;50.768;13.150;2022-09-12T12:45:09;4.20;;;1.70;;
23476;SDS011;11911;50.768;13.150;2022-09-12T12:47:59;1.70;;;1.50;;
23476;SDS011;11911;50.768;13.150;2022-09-12T12:50:33;2.20;;;1.57;;
23476;SDS011;11911;50.768;13.150;2022-09-12T12:53:00;3.80;;;1.70;;
23476;SDS011;11911;50.768;13.150;2022-09-12T12:55:32;1.97;;;1.50;;
23476;SDS011;11911;50.768;13.150;2022-09-12T12:58:02;2.03;;;1.70;;
23476;SDS011;11911;50.768;13.150;2022-09-12T13:00:34;2.37;;;1.90;;
23476;SDS011;11911;50.768;13.150;2022-09-12T13:06:04;3.60;;;1.90;;
23476;SDS011;11911;50.768;13.150;2022-09-12T13:08:28;2.00;;;1.80;;
23476;SDS011;11911;50.768;13.150;2022-09-12T13:10:58;1.90;;;1.80;;
23476;SDS011;11911;50.768;13.150;2022-09-12T13:13:37;2.10;;;1.60;;
23476;SDS011;11911;50.768;13.150;2022-09-12T13:16:08;2.30;;;1.77;;
23476;SDS011;11911;50.768;13.150;2022-09-12T13:18:44;1.50;;;1.40;;
23476;SDS011;11911;50.768;13.150;2022-09-12T13:21:14;1.80;;;1.40;;
23476;SDS011;11911;50.768;13.150;2022-09-12T13:23:40;4.30;;;1.60;;
23476;SDS011;11911;50.768;13.150;2022-09-12T13:26:40;1.53;;;1.43;;
23476;SDS011;11911;50.768;13.150;2022-09-12T13:29:16;1.70;;;1.53;;
23476;SDS011;11911;50.768;13.150;2022-09-12T13:31:47;1.47;;;1.30;;
23476;SDS011;11911;50.768;13.150;2022-09-12T13:34:26;2.27;;;1.70;;
23476;SDS011;11911;50.768;13.150;2022-09-12T13:39:55;2.00;;;1.80;;
23476;SDS011;11911;50.768;13.150;2022-09-12T13:42:33;2.53;;;1.60;;
23476;SDS011;11911;50.768;13.150;2022-09-12T13:47:46;1.87;;;1.77;;
23476;SDS011;11911;50.768;13.150;2022-09-12T13:50:19;3.23;;;1.60;;
23476;SDS011;11911;50.768;13.150;2022-09-12T13:52:49;1.60;;;1.50;;
23476;SDS011;11911;50.768;13.150;2022-09-12T13:55:28;1.70;;;1.60;;
23476;SDS011;11911;50.768;13.150;2022-09-12T13:58:00;2.00;;;1.50;;
23476;SDS011;11911;50.768;13.150;2022-09-12T14:00:28;1.83;;;1.53;;
23476;SDS011;11911;50.768;13.150;2022-09-12T14:02:56;2.50;;;1.50;;
23476;SDS011;11911;50.768;13.150;2022-09-12T14:05:41;1.77;;;1.67;;
23476;SDS011;11911;50.768;13.150;2022-09-12T14:08:10;1.77;;;1.67;;
23476;SDS011;11911;50.768;13.150;2022-09-12T14:10:38;2.20;;;1.50;;
23476;SDS011;11911;50.768;13.150;2022-09-12T14:13:11;1.43;;;1.30;;
23476;SDS011;11911;50.768;13.150;2022-09-12T14:15:58;1.77;;;1.57;;
23476;SDS011;11911;50.768;13.150;2022-09-12T14:18:30;2.50;;;1.70;;
23476;SDS011;11911;50.768;13.150;2022-09-12T14:21:07;2.53;;;1.77;;
23476;SDS011;11911;50.768;13.150;2022-09-12T14:23:36;2.17;;;1.67;;
23476;SDS011;11911;50.768;13.150;2022-09-12T14:26:07;1.80;;;1.70;;
23476;SDS011;11911;50.768;13.150;2022-09-12T14:28:37;3.83;;;1.87;;
23476;SDS011;11911;50.768;13.150;2022-09-12T14:31:19;3.10;;;2.00;;
23476;SDS011;11911;50.768;13.150;2022-09-12T14:33:48;1.70;;;1.60;;
23476;SDS011;11911;50.768;13.150;2022-09-12T14:36:20;1.50;;;1.40;;
23476;SDS011;11911;50.768;13.150;2022-09-12T14:38:57;1.50;;;1.30;;
23476;SDS011;11911;50.768;13.150;2022-09-12T14:41:29;1.40;;;1.30;;
23476;SDS011;11911;50.768;13.150;2022-09-12T14:43:57;4.37;;;1.60;;
23476;SDS011;11911;50.768;13.150;2022-09-12T14:46:27;1.80;;;1.57;;
23476;SDS011;11911;50.768;13.150;2022-09-12T14:49:01;4.30;;;1.80;;
23476;SDS011;11911;50.768;13.150;2022-09-12T14:51:58;1.50;;;1.40;;
23476;SDS011;11911;50.768;13.150;2022-09-12T14:56:53;4.03;;;1.40;;
23476;SDS011;11911;50.768;13.150;2022-09-12T14:59:27;1.67;;;1.43;;
23476;SDS011;11911;50.768;13.150;2022-09-12T15:04:38;1.60;;;1.40;;
23476;SDS011;11911;50.768;13.150;2022-09-12T15:07:14;2.23;;;1.27;;
23476;SDS011;11911;50.768;13.150;2022-09-12T15:09:56;1.70;;;1.60;;
23476;SDS011;11911;50.768;13.150;2022-09-12T15:12:40;1.70;;;1.43;;
23476;SDS011;11911;50.768;13.150;2022-09-12T15:15:12;1.30;;;1.20;;
23476;SDS011;11911;50.768;13.150;2022-09-12T15:17:43;2.13;;;1.60;;
23476;SDS011;11911;50.768;13.150;2022-09-12T15:20:08;8.77;;;5.70;;
23476;SDS011;11911;50.768;13.150;2022-09-12T15:22:35;33.60;;;14.17;;
23476;SDS011;11911;50.768;13.150;2022-09-12T15:25:02;45.27;;;17.37;;
23476;SDS011;11911;50.768;13.150;2022-09-12T15:27:29;8.20;;;3.33;;
23476;SDS011;11911;50.768;13.150;2022-09-12T15:29:54;14.93;;;6.77;;
23476;SDS011;11911;50.768;13.150;2022-09-12T15:32:27;2.57;;;2.37;;
23476;SDS011;11911;50.768;13.150;2022-09-12T15:34:54;2.80;;;1.90;;
23476;SDS011;11911;50.768;13.150;2022-09-12T15:37:20;1.87;;;1.67;;
23476;SDS011;11911;50.768;13.150;2022-09-12T15:39:48;2.63;;;1.60;;
23476;SDS011;11911;50.768;13.150;2022-09-12T15:42:14;1.93;;;1.83;;
23476;SDS011;11911;50.768;13.150;2022-09-12T15:44:40;2.07;;;1.97;;
23476;SDS011;11911;50.768;13.150;2022-09-12T15:47:10;1.70;;;1.60;;
23476;SDS011;11911;50.768;13.150;2022-09-12T15:49:37;3.50;;;1.73;;
23476;SDS011;11911;50.768;13.150;2022-09-12T15:52:03;1.77;;;1.67;;
23476;SDS011;11911;50.768;13.150;2022-09-12T15:54:29;1.93;;;1.83;;
23476;SDS011;11911;50.768;13.150;2022-09-12T15:56:54;1.60;;;1.40;;
23476;SDS011;11911;50.768;13.150;2022-09-12T15:59:19;3.13;;;1.73;;
23476;SDS011;11911;50.768;13.150;2022-09-12T16:01:45;3.17;;;1.53;;
23476;SDS011;11911;50.768;13.150;2022-09-12T16:04:21;5.40;;;1.90;;
23476;SDS011;11911;50.768;13.150;2022-09-12T16:06:48;1.93;;;1.50;;
23476;SDS011;11911;50.768;13.150;2022-09-12T16:09:15;2.60;;;1.60;;
23476;SDS011;11911;50.768;13.150;2022-09-12T16:11:41;4.70;;;1.70;;
23476;SDS011;11911;50.768;13.150;2022-09-12T16:14:06;3.63;;;1.40;;
23476;SDS011;11911;50.768;13.150;2022-09-12T16:16:32;1.80;;;1.47;;
23476;SDS011;11911;50.768;13.150;2022-09-12T16:18:58;1.50;;;1.33;;
23476;SDS011;11911;50.768;13.150;2022-09-12T16:21:23;1.70;;;1.60;;
23476;SDS011;11911;50.768;13.150;2022-09-12T16:23:49;1.80;;;1.70;;
23476;SDS011;11911;50.768;13.150;2022-09-12T16:26:15;1.60;;;1.50;;
23476;SDS011;11911;50.768;13.150;2022-09-12T16:28:41;4.40;;;1.73;;
23476;SDS011;11911;50.768;13.150;2022-09-12T16:31:07;6.23;;;1.60;;
23476;SDS011;11911;50.768;13.150;2022-09-12T16:33:36;2.53;;;1.57;;
23476;SDS011;11911;50.768;13.150;2022-09-12T16:36:04;2.00;;;1.80;;
23476;SDS011;11911;50.768;13.150;2022-09-12T16:38:38;3.10;;;1.57;;
23476;SDS011;11911;50.768;13.150;2022-09-12T16:41:05;2.20;;;1.90;;
23476;SDS011;11911;50.768;13.150;2022-09-12T16:43:32;3.17;;;1.73;;
23476;SDS011;11911;50.768;13.150;2022-09-12T16:46:03;2.87;;;2.20;;
23476;SDS011;11911;50.768;13.150;2022-09-12T16:48:33;2.53;;;1.47;;
23476;SDS011;11911;50.768;13.150;2022-09-12T16:51:05;4.37;;;3.00;;
23476;SDS011;11911;50.768;13.150;2022-09-12T16:53:31;4.37;;;3.13;;
23476;SDS011;11911;50.768;13.150;2022-09-12T16:56:01;2.67;;;2.47;;
23476;SDS011;11911;50.768;13.150;2022-09-12T16:58:27;3.13;;;1.90;;
23476;SDS011;11911;50.768;13.150;2022-09-12T17:01:06;4.83;;;1.90;;
23476;SDS011;11911;50.768;13.150;2022-09-12T17:03:32;2.40;;;2.20;;
23476;SDS011;11911;50.768;13.150;2022-09-12T17:06:04;2.20;;;2.00;;
23476;SDS011;11911;50.768;13.150;2022-09-12T17:08:35;3.50;;;1.83;;
23476;SDS011;11911;50.768;13.150;2022-09-12T17:11:04;1.93;;;1.83;;
23476;SDS011;11911;50.768;13.150;2022-09-12T17:13:31;3.97;;;1.83;;
23476;SDS011;11911;50.768;13.150;2022-09-12T17:15:57;4.70;;;1.90;;
23476;SDS011;11911;50.768;13.150;2022-09-12T17:18:23;2.80;;;1.93;;
23476;SDS011;11911;50.768;13.150;2022-09-12T17:20:49;1.90;;;1.80;;
23476;SDS011;11911;50.768;13.150;2022-09-12T17:23:15;2.43;;;1.90;;
23476;SDS011;11911;50.768;13.150;2022-09-12T17:25:45;3.30;;;2.00;;
23476;SDS011;11911;50.768;13.150;2022-09-12T17:28:15;3.33;;;1.97;;
23476;SDS011;11911;50.768;13.150;2022-09-12T17:30:41;3.87;;;1.93;;
23476;SDS011;11911;50.768;13.150;2022-09-12T17:33:07;1.70;;;1.60;;
23476;SDS011;11911;50.768;13.150;2022-09-12T17:35:33;1.80;;;1.70;;
23476;SDS011;11911;50.768;13.150;2022-09-12T17:37:59;5.40;;;1.83;;
23476;SDS011;11911;50.768;13.150;2022-09-12T17:40:25;2.80;;;1.73;;
23476;SDS011;11911;50.768;13.150;2022-09-12T17:42:51;3.43;;;2.00;;
23476;SDS011;11911;50.768;13.150;2022-09-12T17:45:16;3.00;;;1.80;;
23476;SDS011;11911;50.768;13.150;2022-09-12T17:47:42;1.90;;;1.70;;
23476;SDS011;11911;50.768;13.150;2022-09-12T17:50:08;1.90;;;1.80;;
23476;SDS011;11911;50.768;13.150;2022-09-12T17:52:34;3.30;;;1.80;;
23476;SDS011;11911;50.768;13.150;2022-09-12T17:55:00;1.63;;;1.53;;
23476;SDS011;11911;50.768;13.150;2022-09-12T17:57:26;5.57;;;1.70;;
23476;SDS011;11911;50.768;13.150;2022-09-12T17:59:51;1.90;;;1.80;;
23476;SDS011;11911;50.768;13.150;2022-09-12T18:02:16;1.70;;;1.60;;
23476;SDS011;11911;50.768;13.150;2022-09-12T18:04:43;1.97;;;1.77;;
23476;SDS011;11911;50.768;13.150;2022-09-12T18:07:13;8.00;;;1.57;;
23476;SDS011;11911;50.768;13.150;2022-09-12T18:09:39;3.60;;;1.93;;
23476;SDS011;11911;50.768;13.150;2022-09-12T18:12:08;1.80;;;1.70;;
23476;SDS011;11911;50.768;13.150;2022-09-12T18:14:34;5.27;;;2.70;;
23476;SDS011;11911;50.768;13.150;2022-09-12T18:17:00;4.40;;;3.23;;
23476;SDS011;11911;50.768;13.150;2022-09-12T18:19:26;5.80;;;4.83;;
23476;SDS011;11911;50.768;13.150;2022-09-12T18:21:52;4.80;;;4.23;;
23476;SDS011;11911;50.768;13.150;2022-09-12T18:24:19;6.50;;;5.90;;
23476;SDS011;11911;50.768;13.150;2022-09-12T18:26:44;6.17;;;5.57;;
23476;SDS011;11911;50.768;13.150;2022-09-12T18:29:10;5.40;;;4.90;;
23476;SDS011;11911;50.768;13.150;2022-09-12T18:31:36;4.07;;;3.70;;
23476;SDS011;11911;50.768;13.150;2022-09-12T18:34:02;3.50;;;3.20;;
23476;SDS011;11911;50.768;13.150;2022-09-12T18:36:29;3.60;;;2.20;;
23476;SDS011;11911;50.768;13.150;2022-09-12T18:38:56;2.10;;;1.70;;
23476;SDS011;11911;50.768;13.150;2022-09-12T18:41:22;3.10;;;2.10;;
23476;SDS011;11911;50.768;13.150;2022-09-12T18:43:52;2.90;;;2.13;;
23476;SDS011;11911;50.768;13.150;2022-09-12T18:46:19;4.83;;;1.97;;
23476;SDS011;11911;50.768;13.150;2022-09-12T18:48:45;2.37;;;2.10;;
23476;SDS011;11911;50.768;13.150;2022-09-12T18:51:11;2.10;;;2.00;;
23476;SDS011;11911;50.768;13.150;2022-09-12T18:53:38;2.33;;;2.17;;
23476;SDS011;11911;50.768;13.150;2022-09-12T18:56:05;5.87;;;2.17;;
23476;SDS011;11911;50.768;13.150;2022-09-12T18:58:36;2.60;;;2.20;;
23476;SDS011;11911;50.768;13.150;2022-09-12T19:01:07;2.70;;;2.23;;
23476;SDS011;11911;50.768;13.150;2022-09-12T19:03:40;2.20;;;1.90;;
23476;SDS011;11911;50.768;13.150;2022-09-12T19:06:07;4.80;;;2.73;;
23476;SDS011;11911;50.768;13.150;2022-09-12T19:08:33;2.90;;;2.37;;
23476;SDS011;11911;50.768;13.150;2022-09-12T19:11:00;3.10;;;2.30;;
23476;SDS011;11911;50.768;13.150;2022-09-12T19:13:25;2.93;;;2.40;;
23476;SDS011;11911;50.768;13.150;2022-09-12T19:15:51;2.80;;;2.60;;
23476;SDS011;11911;50.768;13.150;2022-09-12T19:18:16;4.00;;;2.40;;
23476;SDS011;11911;50.768;13.150;2022-09-12T19:20:42;3.63;;;2.73;;
23476;SDS011;11911;50.768;13.150;2022-09-12T19:23:07;5.70;;;2.60;;
23476;SDS011;11911;50.768;13.150;2022-09-12T19:25:33;2.73;;;2.50;;
23476;SDS011;11911;50.768;13.150;2022-09-12T19:27:59;3.27;;;2.30;;
23476;SDS011;11911;50.768;13.150;2022-09-12T19:30:24;5.97;;;2.40;;
23476;SDS011;11911;50.768;13.150;2022-09-12T19:32:49;4.87;;;2.80;;
23476;SDS011;11911;50.768;13.150;2022-09-12T19:35:15;3.20;;;2.90;;
23476;SDS011;11911;50.768;13.150;2022-09-12T19:37:40;3.50;;;3.20;;
23476;SDS011;11911;50.768;13.150;2022-09-12T19:40:06;5.03;;;3.60;;
23476;SDS011;11911;50.768;13.150;2022-09-12T19:42:32;4.03;;;3.63;;
23476;SDS011;11911;50.768;13.150;2022-09-12T19:44:58;4.97;;;3.30;;
23476;SDS011;11911;50.768;13.150;2022-09-12T19:47:23;4.57;;;3.80;;
23476;SDS011;11911;50.768;13.150;2022-09-12T19:49:51;3.60;;;3.30;;
23476;SDS011;11911;50.768;13.150;2022-09-12T19:52:17;4.50;;;3.60;;
23476;SDS011;11911;50.768;13.150;2022-09-12T19:54:43;4.50;;;3.73;;
23476;SDS011;11911;50.768;13.150;2022-09-12T19:57:10;4.10;;;3.80;;
23476;SDS011;11911;50.768;13.150;2022-09-12T19:59:35;6.70;;;4.20;;
23476;SDS011;11911;50.768;13.150;2022-09-12T20:02:00;4.60;;;4.20;;
23476;SDS011;11911;50.768;13.150;2022-09-12T20:04:26;4.80;;;4.33;;